Startpagina
METAR-TAF:

METAR-TAF

Vliegvelden :

Câmpia Turzii, Roemenië

breedte: 46-30-12N, lengte: 023-53-07E, hoogte: 324 m

Actueel weer

Dit bericht is 2 uur en het 43 minuten geleden gemaakt, om 22:00 UTC
Wind 3 kt uit variabele richting
Temperatuur -2°C
Vochtigheid 93%
Druk 1014 hPa
Zicht 10 km of meer
Gebroken wolken op 15000 ft

METAR: LRCT 212200Z VRB03KT 9999 BKN150 M02/M03 Q1014 BLU BLU

Tijdstip: 02:43 (00:43 UTC)


TAF: ontbreekt

Waarnemingen en weersverwachtingen van meer dan 4000 vliegvelden (METAR en TAF).

De beschikbare stations zijn de gele en rode punten op de kaart.

Ga met uw muis naar het station om de naam te zien.

Klik dan om waarnemingen en weersverwachtingen te zien.

kaart wijzigen: klik op de groene knoppen met een zwart kruis om in te zoomen, op de groene knop met een streepje om uit te zoomen of op de groene pijlen voor aangrenzende kaarten.


METAR-TAF: